This is the latest recevied weather packets stored in our database for station/object KC5CAM-13. If no packets are shown the sender has not sent any weather packets the latest 10 day(s).
| Time | Temp. | Humidity | Pressure | Rain* | Wind** | Luminosity | Snow |
|---|---|---|---|---|---|---|---|
| 1777668595 | 18.33° C | 62% | 1017 hPa | 0 mm | - | 128 W/m² | - |
| 1777668291 | 18.33° C | 62% | 1017.2 hPa | 0 mm | - | 113 W/m² | - |
| 1777667987 | 18.33° C | 63% | 1017.2 hPa | 0 mm | - | 107 W/m² | - |
| 1777667684 | 18.33° C | 62% | 1017.5 hPa | 0 mm | - | 108 W/m² | - |
| 1777667382 | 17.78° C | 62% | 1017.4 hPa | 0 mm | - | 104 W/m² | - |
| 1777667079 | 18.33° C | 64% | 1017.4 hPa | 0 mm | - | 101 W/m² | - |
| 1777666775 | 18.33° C | 62% | 1017.4 hPa | 0 mm | - | 102 W/m² | - |
| 1777666472 | 18.33° C | 63% | 1017.6 hPa | 0 mm | - | 108 W/m² | - |
| 1777666169 | 18.33° C | 63% | 1017.3 hPa | 0 mm | - | 127 W/m² | - |
| 1777665866 | 18.33° C | 60% | 1017.1 hPa | 0 mm | - | 138 W/m² | - |
| 1777665564 | 18.33° C | 61% | 1017.4 hPa | 0 mm | - | 140 W/m² | - |
| 1777665260 | 18.33° C | 60% | 1017.6 hPa | 0 mm | - | 140 W/m² | - |
| 1777664956 | 18.33° C | 60% | 1017.1 hPa | 0 mm | - | 151 W/m² | - |
| 1777664652 | 18.33° C | 61% | 1017 hPa | 0 mm | - | 154 W/m² | - |
| 1777664348 | 18.33° C | 59% | 1017.1 hPa | 0 mm | - | 166 W/m² | - |
| 1777664047 | 18.33° C | 60% | 1017 hPa | 0 mm | - | 184 W/m² | - |
| 1777663744 | 18.33° C | 60% | 1016.8 hPa | 0 mm | - | 191 W/m² | - |
| 1777663441 | 18.33° C | 59% | 1017 hPa | 0 mm | - | 201 W/m² | - |
| 1777663137 | 18.89° C | 60% | 1017 hPa | 0 mm | - | 216 W/m² | - |
| 1777662835 | 18.33° C | 63% | 1017.2 hPa | 0 mm | - | 219 W/m² | - |
| 1777662532 | 18.33° C | 61% | 1017.5 hPa | 0 mm | - | 171 W/m² | - |
| 1777662228 | 18.33° C | 58% | 1017.2 hPa | 0 mm | - | 216 W/m² | - |
| 1777661922 | 18.33° C | 61% | 1016.9 hPa | 0 mm | - | 234 W/m² | - |
| 1777661619 | 18.33° C | 61% | 1017.1 hPa | 0 mm | - | 225 W/m² | - |
| 1777661315 | 18.33° C | 63% | 1017.2 hPa | 0 mm | - | 215 W/m² | - |
* Rain latest hour (hover to see other rain measurements)
** Current wind speed in m/s (hover to see current wind gust speed)